Time;durP1;ratioP1;P1;durP2;ratioP2;P2;SDS_P1;SDS_P2;PMS_P1;PMS_P2;Temp;Humidity;BMP_temperature;BMP_pressure;BME280_temperature;BME280_humidity;BME280_pressure;Samples;Min_cycle;Max_cycle;Signal;HPM_P1;HPM_P2
2021/03/21 00:01:25;;;;;;;2.60;1.83;;;5.10;40.30;;;;;;4927859;29;20217;-88
2021/03/21 00:03:53;;;;;;;3.20;2.03;;;5.10;38.80;;;;;;4939243;29;20328;-87
2021/03/21 00:06:19;;;;;;;2.37;2.10;;;5.10;39.60;;;;;;4948217;28;20203;-87
2021/03/21 00:08:44;;;;;;;5.13;2.10;;;5.10;39.80;;;;;;4936836;28;20278;-87
2021/03/21 00:11:10;;;;;;;2.23;1.70;;;5.00;40.10;;;;;;4947845;28;20218;-87
2021/03/21 00:13:36;;;;;;;2.80;2.00;;;5.00;40.50;;;;;;4960388;28;20205;-87
2021/03/21 00:16:04;;;;;;;2.20;1.97;;;5.00;40.10;;;;;;4941928;29;20205;-87
2021/03/21 00:18:35;;;;;;;2.03;1.83;;;5.10;40.20;;;;;;4943701;29;20200;-87
2021/03/21 00:21:01;;;;;;;2.40;2.20;;;5.00;40.60;;;;;;4945548;29;20194;-87
2021/03/21 00:23:27;;;;;;;1.70;1.60;;;5.00;41.10;;;;;;4947213;29;20201;-88
2021/03/21 00:25:53;;;;;;;2.33;2.00;;;5.30;41.90;;;;;;4944984;28;20225;-88
2021/03/21 00:28:23;;;;;;;2.97;1.73;;;4.90;41.90;;;;;;4942330;29;20242;-87
2021/03/21 00:30:50;;;;;;;9.40;2.37;;;5.00;41.30;;;;;;4930190;29;20257;-87
2021/03/21 00:33:23;;;;;;;1.80;1.70;;;5.10;40.60;;;;;;4940713;29;20655;-87
2021/03/21 00:35:52;;;;;;;3.13;2.43;;;5.10;41.30;;;;;;4945144;29;20277;-87
2021/03/21 00:38:23;;;;;;;1.90;1.70;;;5.10;40.60;;;;;;4922211;29;20226;-87
2021/03/21 00:40:50;;;;;;;2.10;1.90;;;5.00;40.40;;;;;;4951376;28;20716;-87
2021/03/21 00:43:16;;;;;;;2.00;1.80;;;5.30;41.10;;;;;;4932178;29;20245;-88
2021/03/21 00:45:42;;;;;;;2.77;1.83;;;5.00;41.10;;;;;;4931855;29;20213;-87
2021/03/21 00:48:19;;;;;;;2.10;1.80;;;5.20;41.50;;;;;;4928808;29;20234;-88
2021/03/21 00:50:47;;;;;;;2.17;1.73;;;5.00;41.50;;;;;;4936834;29;20316;-87
2021/03/21 00:53:13;;;;;;;2.20;1.90;;;5.00;42.20;;;;;;4929885;29;20225;-87
2021/03/21 00:55:39;;;;;;;1.83;1.73;;;5.50;41.80;;;;;;4938542;29;20193;-87
2021/03/21 00:58:05;;;;;;;2.37;1.50;;;5.00;41.20;;;;;;4910639;29;20204;-87
2021/03/21 01:00:35;;;;;;;3.57;2.10;;;4.90;41.60;;;;;;4908836;29;20290;-87
2021/03/21 01:03:05;;;;;;;3.23;1.80;;;4.90;41.20;;;;;;4883557;29;20236;-87
2021/03/21 01:05:49;;;;;;;2.77;1.83;;;4.90;41.40;;;;;;4911813;29;23155;-87
2021/03/21 01:08:28;;;;;;;2.30;1.90;;;4.80;41.10;;;;;;4899998;29;20238;-87
2021/03/21 01:11:07;;;;;;;3.73;2.00;;;4.90;40.60;;;;;;4894215;29;20192;-87
2021/03/21 01:13:34;;;;;;;2.17;1.93;;;4.90;41.10;;;;;;4893172;29;20250;-87
2021/03/21 01:16:02;;;;;;;2.30;1.80;;;4.90;41.60;;;;;;4916537;29;20211;-87
2021/03/21 01:18:32;;;;;;;2.20;1.90;;;4.90;41.70;;;;;;4912981;29;20295;-87
2021/03/21 01:20:58;;;;;;;2.90;1.80;;;4.90;41.80;;;;;;4902053;29;20727;-87
2021/03/21 01:23:27;;;;;;;2.20;1.60;;;4.90;41.30;;;;;;4912568;29;20249;-87
2021/03/21 01:25:54;;;;;;;4.20;1.90;;;4.80;41.80;;;;;;4914419;29;20237;-87
2021/03/21 01:28:32;;;;;;;2.70;1.60;;;4.80;42.40;;;;;;4928689;29;20230;-87
2021/03/21 01:31:00;;;;;;;2.10;1.90;;;4.80;42.70;;;;;;4952139;28;20229;-87
2021/03/21 01:33:31;;;;;;;2.50;2.30;;;5.70;42.80;;;;;;4947246;28;20241;-87
2021/03/21 01:35:57;;;;;;;4.10;1.80;;;4.80;42.30;;;;;;4952880;29;20189;-86
2021/03/21 01:38:25;;;;;;;3.03;1.80;;;4.80;42.60;;;;;;4944387;28;20313;-86
2021/03/21 01:41:02;;;;;;;2.10;1.90;;;4.80;42.40;;;;;;4949681;29;20198;-86
2021/03/21 01:43:32;;;;;;;2.40;1.83;;;4.80;42.90;;;;;;4960410;29;20213;-86
2021/03/21 01:45:59;;;;;;;1.80;1.70;;;4.70;42.80;;;;;;4933435;29;20265;-87
2021/03/21 01:48:50;;;;;;;2.23;1.80;;;4.70;42.80;;;;;;4952679;28;20194;-86
2021/03/21 01:51:27;;;;;;;2.60;1.97;;;4.70;42.80;;;;;;4958743;29;20178;-86
2021/03/21 01:54:03;;;;;;;2.73;1.93;;;4.60;42.70;;;;;;4941503;29;20217;-86
2021/03/21 01:56:31;;;;;;;2.20;1.77;;;4.80;43.60;;;;;;4948829;29;20809;-88
2021/03/21 01:59:13;;;;;;;3.50;2.20;;;4.70;43.50;;;;;;4952940;28;20246;-86
2021/03/21 02:01:38;;;;;;;3.30;1.60;;;4.70;43.50;;;;;;4948660;28;20232;-86
2021/03/21 02:04:05;;;;;;;2.17;1.70;;;4.60;44.00;;;;;;4949353;29;20308;-86
2021/03/21 02:06:36;;;;;;;3.20;2.67;;;4.70;44.10;;;;;;4952113;28;20335;-86
2021/03/21 02:09:17;;;;;;;2.50;2.30;;;4.60;44.10;;;;;;4962869;29;20193;-86
2021/03/21 02:11:49;;;;;;;2.60;1.70;;;4.60;44.30;;;;;;4946233;29;20237;-87
2021/03/21 02:14:31;;;;;;;2.90;2.03;;;4.60;45.50;;;;;;4949650;29;20232;-87
2021/03/21 02:17:20;;;;;;;2.40;2.20;;;4.60;45.50;;;;;;4963573;29;20214;-86
2021/03/21 02:19:58;;;;;;;2.37;2.07;;;4.60;45.70;;;;;;4959335;29;20626;-86
2021/03/21 02:22:31;;;;;;;6.63;2.30;;;4.60;45.70;;;;;;4965911;28;20223;-86
2021/03/21 02:25:30;;;;;;;3.87;1.93;;;4.60;46.10;;;;;;4948178;29;20186;-86
2021/03/21 02:27:58;;;;;;;5.63;2.73;;;4.60;46.00;;;;;;4908994;29;20219;-86
2021/03/21 02:30:30;;;;;;;2.47;2.00;;;4.60;46.60;;;;;;4893405;29;20195;-87
2021/03/21 02:33:07;;;;;;;4.33;1.77;;;4.70;47.20;;;;;;4892027;29;20257;-86
2021/03/21 02:35:51;;;;;;;2.27;1.87;;;4.60;46.90;;;;;;4903693;29;20228;-86
2021/03/21 02:38:34;;;;;;;2.20;2.00;;;4.70;47.40;;;;;;4889000;29;20283;-87
2021/03/21 02:41:12;;;;;;;2.87;2.03;;;4.60;47.60;;;;;;4885655;29;20231;-87
2021/03/21 02:43:46;;;;;;;3.10;2.30;;;4.70;47.10;;;;;;4901828;29;20223;-87
2021/03/21 02:46:24;;;;;;;3.53;2.00;;;4.60;47.40;;;;;;4890444;29;20290;-87
2021/03/21 02:49:16;;;;;;;6.00;2.33;;;4.60;47.40;;;;;;4906017;29;20219;-88
2021/03/21 02:51:49;;;;;;;2.67;2.00;;;4.60;47.60;;;;;;4889472;29;20229;-87
2021/03/21 02:54:38;;;;;;;2.57;2.03;;;4.70;47.30;;;;;;4903613;29;20239;-87
2021/03/21 02:57:11;;;;;;;2.93;2.37;;;4.70;48.00;;;;;;4886700;29;20230;-87
2021/03/21 02:59:44;;;;;;;3.10;2.40;;;4.80;48.50;;;;;;4888379;29;20637;-86
2021/03/21 03:02:17;;;;;;;3.00;2.70;;;4.80;47.70;;;;;;4905556;29;20247;-86
2021/03/21 03:04:49;;;;;;;3.07;1.67;;;4.70;48.20;;;;;;4911660;29;20297;-86
2021/03/21 03:07:31;;;;;;;2.47;1.80;;;4.80;48.30;;;;;;4961358;28;20708;-86
2021/03/21 03:10:05;;;;;;;2.00;1.53;;;4.80;48.50;;;;;;4961064;28;20222;-86
2021/03/21 03:12:34;;;;;;;1.93;1.83;;;4.80;48.70;;;;;;4956594;28;20248;-86
2021/03/21 03:15:09;;;;;;;1.80;1.70;;;4.70;48.80;;;;;;4939028;29;20189;-86
2021/03/21 03:17:41;;;;;;;4.20;2.70;;;4.70;48.70;;;;;;4950924;28;20241;-86
2021/03/21 03:20:25;;;;;;;2.53;2.20;;;4.30;49.40;;;;;;4959723;28;20535;-86
2021/03/21 03:23:02;;;;;;;2.50;2.07;;;4.70;49.40;;;;;;4962300;28;20217;-86
2021/03/21 03:25:33;;;;;;;3.63;2.60;;;4.70;49.70;;;;;;4947213;29;20190;-86
2021/03/21 03:28:05;;;;;;;2.83;2.40;;;4.70;49.60;;;;;;4954283;28;20222;-86
2021/03/21 03:30:57;;;;;;;2.40;2.10;;;4.80;49.60;;;;;;4957060;28;20190;-86
2021/03/21 03:33:24;;;;;;;5.47;2.77;;;4.70;50.10;;;;;;4951524;28;20281;-86
2021/03/21 03:35:51;;;;;;;3.63;2.40;;;4.70;50.30;;;;;;4942304;29;20272;-86
2021/03/21 03:38:19;;;;;;;2.50;2.30;;;4.70;50.00;;;;;;4940684;29;20221;-86
2021/03/21 03:40:46;;;;;;;8.20;2.33;;;4.70;50.90;;;;;;4932518;29;20198;-86
2021/03/21 03:43:27;;;;;;;2.60;2.27;;;4.70;50.70;;;;;;4944028;28;20218;-86
2021/03/21 03:46:12;;;;;;;3.47;2.60;;;4.80;50.90;;;;;;4964274;28;20212;-86
2021/03/21 03:49:01;;;;;;;3.40;2.43;;;4.80;50.90;;;;;;4944693;28;20256;-86
2021/03/21 03:51:43;;;;;;;2.50;2.10;;;4.80;51.00;;;;;;4959207;28;20261;-86
2021/03/21 03:54:17;;;;;;;3.27;2.40;;;4.80;51.60;;;;;;4958375;29;20230;-85
2021/03/21 03:57:04;;;;;;;3.63;2.17;;;4.80;51.50;;;;;;4957486;28;20546;-85
2021/03/21 04:00:08;;;;;;;3.67;2.10;;;4.80;51.00;;;;;;4954129;29;20177;-86
2021/03/21 04:03:05;;;;;;;3.67;2.53;;;4.80;51.80;;;;;;4961377;28;20242;-85
2021/03/21 04:05:34;;;;;;;4.93;3.40;;;4.80;52.40;;;;;;4939785;29;20213;-85
2021/03/21 04:08:06;;;;;;;5.90;4.00;;;4.90;52.80;;;;;;4944896;29;20261;-86
2021/03/21 04:10:44;;;;;;;6.43;3.80;;;4.90;53.70;;;;;;4949906;28;20183;-85
2021/03/21 04:14:05;;;;;;;7.90;4.17;;;4.80;54.60;;;;;;4941420;29;20214;-86
2021/03/21 04:16:42;;;;;;;6.90;4.10;;;4.90;56.10;;;;;;4822422;29;20240;-86
2021/03/21 04:19:11;;;;;;;7.70;5.47;;;5.00;57.20;;;;;;4965911;28;20216;-85
2021/03/21 04:21:52;;;;;;;7.33;4.60;;;5.20;58.20;;;;;;4959034;29;20549;-85
2021/03/21 04:24:31;;;;;;;9.47;6.27;;;5.10;58.80;;;;;;4956587;28;20192;-85
2021/03/21 04:27:16;;;;;;;7.37;5.17;;;5.10;59.30;;;;;;4952507;29;20212;-86
2021/03/21 04:29:48;;;;;;;6.00;4.60;;;5.20;59.90;;;;;;4939085;28;20226;-86
2021/03/21 04:32:20;;;;;;;7.33;4.97;;;5.20;60.30;;;;;;4959686;28;20221;-86
2021/03/21 04:34:50;;;;;;;7.77;5.63;;;5.20;61.50;;;;;;4953681;28;21472;-86
2021/03/21 04:37:18;;;;;;;8.00;6.17;;;5.30;62.50;;;;;;4942771;29;20190;-86
2021/03/21 04:39:44;;;;;;;8.37;5.73;;;5.30;63.70;;;;;;4952068;28;20304;-86
2021/03/21 04:42:22;;;;;;;7.37;5.57;;;5.30;64.30;;;;;;4966009;28;20225;-86
2021/03/21 04:44:47;;;;;;;8.07;5.50;;;5.30;65.10;;;;;;4955008;29;20242;-86
2021/03/21 04:47:15;;;;;;;9.40;6.43;;;5.30;65.10;;;;;;4961927;28;20222;-85
2021/03/21 04:49:41;;;;;;;9.37;5.20;;;5.30;65.70;;;;;;4940091;29;20227;-86
2021/03/21 04:52:39;;;;;;;7.00;5.33;;;5.30;66.30;;;;;;4967284;28;20232;-86
2021/03/21 04:55:11;;;;;;;9.10;5.83;;;5.30;66.00;;;;;;4936591;28;20237;-86
2021/03/21 04:57:45;;;;;;;11.80;6.43;;;5.20;66.50;;;;;;4945014;29;20196;-86
2021/03/21 05:00:20;;;;;;;3.70;2.43;;;5.20;66.30;;;;;;4953024;29;20209;-85
2021/03/21 05:02:50;;;;;;;4.30;3.03;;;5.10;66.80;;;;;;4943477;29;20693;-87
2021/03/21 05:05:30;;;;;;;7.40;6.17;;;5.10;68.00;;;;;;4941409;29;20218;-87
2021/03/21 05:07:59;;;;;;;4.40;4.00;;;5.20;68.80;;;;;;4955270;29;20314;-86
2021/03/21 05:10:35;;;;;;;1.93;1.80;;;5.00;68.70;;;;;;4966008;29;20173;-86
2021/03/21 05:13:32;;;;;;;8.00;6.13;;;5.10;69.60;;;;;;4946300;28;20297;-87
2021/03/21 05:16:30;;;;;;;2.83;2.63;;;5.00;70.40;;;;;;4962699;28;20225;-86
2021/03/21 05:19:04;;;;;;;11.77;7.07;;;5.00;70.00;;;;;;4949161;28;20246;-87
2021/03/21 05:21:38;;;;;;;10.30;7.07;;;5.00;70.70;;;;;;4944476;28;20209;-87
2021/03/21 05:24:37;;;;;;;14.43;7.53;;;5.00;71.20;;;;;;4953461;29;20201;-86
2021/03/21 05:27:07;;;;;;;9.03;6.73;;;5.10;70.60;;;;;;4941515;29;20289;-85
2021/03/21 05:29:39;;;;;;;10.03;6.23;;;5.00;71.90;;;;;;4949579;28;20196;-84
2021/03/21 05:32:07;;;;;;;10.40;6.90;;;5.00;72.00;;;;;;4963398;28;20209;-88
2021/03/21 05:34:43;;;;;;;12.43;7.47;;;5.00;72.60;;;;;;4950202;28;20233;-91
2021/03/21 05:38:08;;;;;;;14.33;7.70;;;5.00;72.50;;;;;;4928577;29;20197;-90
2021/03/21 05:41:08;;;;;;;15.40;9.17;;;5.10;73.20;;;;;;4875110;29;20196;-89
2021/03/21 05:43:46;;;;;;;6.33;5.20;;;5.10;74.00;;;;;;4901527;29;20254;-84
2021/03/21 05:46:30;;;;;;;17.17;9.77;;;5.20;74.90;;;;;;4907364;29;20236;-87
2021/03/21 05:49:19;;;;;;;11.40;8.80;;;5.20;73.90;;;;;;4888123;29;20259;-86
2021/03/21 05:51:45;;;;;;;9.20;7.17;;;5.20;73.40;;;;;;4888469;29;20258;-86
2021/03/21 05:54:42;;;;;;;13.20;8.43;;;5.10;73.10;;;;;;4903039;29;20223;-87
2021/03/21 05:57:37;;;;;;;13.67;9.00;;;5.20;73.80;;;;;;4906415;29;20214;-87
2021/03/21 06:00:26;;;;;;;3.33;3.13;;;5.10;73.80;;;;;;4871861;29;20623;-86
2021/03/21 06:03:17;;;;;;;9.13;5.10;;;5.10;73.10;;;;;;4887230;29;20526;-86
2021/03/21 06:06:10;;;;;;;9.20;5.77;;;5.10;73.50;;;;;;4902147;29;20697;-87
2021/03/21 06:08:42;;;;;;;6.90;3.87;;;5.10;73.60;;;;;;4887727;29;20228;-83
2021/03/21 06:11:38;;;;;;;12.87;6.83;;;5.20;74.10;;;;;;4888501;29;20180;-80
2021/03/21 06:14:22;;;;;;;12.30;8.37;;;5.10;74.30;;;;;;4905449;29;20233;-80
2021/03/21 06:16:50;;;;;;;10.20;7.33;;;5.10;74.60;;;;;;4922282;29;20221;-87
2021/03/21 06:19:44;;;;;;;15.37;9.03;;;5.10;74.70;;;;;;4964155;29;20256;-84
2021/03/21 06:22:42;;;;;;;8.33;5.10;;;5.10;75.20;;;;;;4965174;28;20186;-84
2021/03/21 06:25:45;;;;;;;15.47;9.13;;;5.10;75.20;;;;;;4949075;28;20225;-84
2021/03/21 06:28:48;;;;;;;5.87;5.20;;;5.10;75.70;;;;;;4948873;28;20233;-84
2021/03/21 06:31:36;;;;;;;4.13;3.00;;;5.10;76.40;;;;;;4963968;29;20261;-83
2021/03/21 06:34:25;;;;;;;8.37;5.13;;;5.20;76.40;;;;;;4955231;28;20229;-83
2021/03/21 06:37:17;;;;;;;9.83;6.23;;;5.20;76.40;;;;;;4963280;29;20197;-84
2021/03/21 06:40:18;;;;;;;13.57;8.13;;;5.20;76.70;;;;;;4951515;29;20201;-83
2021/03/21 06:43:03;;;;;;;9.93;5.90;;;5.20;76.90;;;;;;4933480;29;20643;-83
2021/03/21 06:45:47;;;;;;;6.47;5.27;;;5.20;77.20;;;;;;4964302;28;20277;-83
2021/03/21 06:48:25;;;;;;;11.60;7.03;;;5.20;76.60;;;;;;4965248;29;20198;-83
2021/03/21 06:51:18;;;;;;;7.57;5.73;;;5.30;76.50;;;;;;4953540;28;20686;-84
2021/03/21 06:54:29;;;;;;;7.20;4.53;;;5.30;77.30;;;;;;4965280;28;20214;-83
2021/03/21 06:57:19;;;;;;;6.27;4.50;;;5.30;76.80;;;;;;4926953;29;20187;-84
2021/03/21 07:00:14;;;;;;;1.63;1.53;;;5.40;77.40;;;;;;4928265;29;20231;-83
2021/03/21 07:03:01;;;;;;;7.63;4.97;;;5.30;76.80;;;;;;4926133;29;20237;-83
2021/03/21 07:06:04;;;;;;;2.83;2.60;;;5.30;78.00;;;;;;4964320;28;20272;-82
2021/03/21 07:08:38;;;;;;;4.00;3.40;;;5.40;77.40;;;;;;4944534;28;20232;-84
2021/03/21 07:11:23;;;;;;;10.50;6.10;;;5.50;78.10;;;;;;4963051;28;20225;-83
2021/03/21 07:14:21;;;;;;;5.23;3.63;;;5.50;77.50;;;;;;4939324;29;20264;-84
2021/03/21 07:17:40;;;;;;;9.07;5.83;;;5.60;77.10;;;;;;4963235;29;20207;-82
2021/03/21 07:20:44;;;;;;;6.57;4.57;;;5.60;76.70;;;;;;4924465;29;20634;-84
2021/03/21 07:23:30;;;;;;;6.77;3.63;;;5.70;75.70;;;;;;4944321;28;20289;-83
2021/03/21 07:26:27;;;;;;;6.13;3.13;;;5.70;76.00;;;;;;4962394;28;20221;-83
2021/03/21 07:29:18;;;;;;;8.07;4.23;;;5.70;76.70;;;;;;4961388;28;20191;-84
2021/03/21 07:31:56;;;;;;;3.37;2.73;;;5.70;77.30;;;;;;4957568;28;20222;-84
2021/03/21 07:34:55;;;;;;;3.33;3.03;;;5.70;77.60;;;;;;4948148;28;20237;-83
2021/03/21 07:37:45;;;;;;;4.43;3.37;;;5.70;77.60;;;;;;4960472;28;20250;-83
2021/03/21 07:40:17;;;;;;;5.70;3.87;;;5.80;77.70;;;;;;4959765;29;20187;-84
2021/03/21 07:43:17;;;;;;;6.53;4.93;;;5.80;77.20;;;;;;4963013;28;20221;-82
2021/03/21 07:45:51;;;;;;;9.87;5.17;;;5.90;77.30;;;;;;4945622;28;20221;-84
2021/03/21 07:48:42;;;;;;;8.70;4.07;;;6.10;76.40;;;;;;4961432;28;20197;-84
2021/03/21 07:51:42;;;;;;;8.57;5.80;;;6.10;75.50;;;;;;4963987;29;20646;-84
2021/03/21 07:54:29;;;;;;;8.53;4.53;;;6.10;74.90;;;;;;4943428;29;20230;-85
2021/03/21 07:57:39;;;;;;;3.73;3.30;;;6.20;74.80;;;;;;4944180;29;20729;-85
2021/03/21 08:00:08;;;;;;;4.00;3.33;;;6.20;75.40;;;;;;4944349;29;20225;-86
2021/03/21 08:02:33;;;;;;;5.53;3.50;;;6.30;75.00;;;;;;4962465;28;20214;-83
2021/03/21 08:05:12;;;;;;;4.90;3.03;;;6.30;74.50;;;;;;4954112;28;20300;-86
2021/03/21 08:07:41;;;;;;;5.10;3.43;;;6.30;75.10;;;;;;4965233;29;20186;-85
2021/03/21 08:10:16;;;;;;;1.87;1.23;;;6.50;74.00;;;;;;4958577;28;20981;-83
2021/03/21 08:12:49;;;;;;;3.63;2.77;;;6.50;74.20;;;;;;4946666;28;20225;-85
2021/03/21 08:15:19;;;;;;;4.43;3.30;;;6.60;73.90;;;;;;4952827;28;20182;-84
2021/03/21 08:17:59;;;;;;;5.07;3.70;;;6.80;73.00;;;;;;4948366;28;20662;-85
2021/03/21 08:20:40;;;;;;;4.70;3.33;;;6.80;73.20;;;;;;4944232;28;20355;-85
2021/03/21 08:23:30;;;;;;;3.27;2.77;;;6.80;73.00;;;;;;4935324;29;20229;-84
2021/03/21 08:25:59;;;;;;;3.27;2.50;;;6.90;73.10;;;;;;4960766;28;20214;-85
2021/03/21 08:28:38;;;;;;;4.47;3.00;;;7.00;73.10;;;;;;4946016;29;20198;-84
2021/03/21 08:31:11;;;;;;;4.13;2.50;;;7.10;73.00;;;;;;4947119;29;20312;-84
2021/03/21 08:33:40;;;;;;;2.93;2.57;;;7.20;71.90;;;;;;4938650;28;20238;-84
2021/03/21 08:36:22;;;;;;;5.63;2.90;;;7.40;70.80;;;;;;4961328;29;20186;-84
2021/03/21 08:39:15;;;;;;;4.97;3.23;;;7.40;71.50;;;;;;4952267;29;20217;-85
2021/03/21 08:41:59;;;;;;;2.43;2.23;;;7.40;71.40;;;;;;4949506;29;20224;-84
2021/03/21 08:44:44;;;;;;;2.23;2.00;;;7.60;70.40;;;;;;4950844;29;20217;-84
2021/03/21 08:47:26;;;;;;;2.10;1.50;;;7.70;71.10;;;;;;4960329;28;20709;-83
2021/03/21 08:49:53;;;;;;;2.10;1.90;;;7.70;69.90;;;;;;4950305;29;20218;-83
2021/03/21 08:52:43;;;;;;;2.80;2.23;;;7.60;71.00;;;;;;4946317;28;20284;-83
2021/03/21 08:58:24;;;;;;;2.50;1.83;;;7.80;73.90;;;;;;4867157;29;20252;-84
2021/03/21 09:00:50;;;;;;;2.40;2.20;;;7.80;72.70;;;;;;4868563;29;22419;-83
2021/03/21 09:03:37;;;;;;;2.73;2.03;;;7.80;73.90;;;;;;4865063;29;20221;-85
2021/03/21 09:06:03;;;;;;;1.07;1.07;;;7.80;74.50;;;;;;4868548;29;20221;-84
2021/03/21 09:08:33;;;;;;;2.07;1.63;;;7.70;73.70;;;;;;4867490;29;20209;-84
2021/03/21 09:11:04;;;;;;;2.40;2.13;;;7.40;73.80;;;;;;4869307;29;20217;-84
2021/03/21 09:13:36;;;;;;;2.90;1.93;;;7.40;76.40;;;;;;4866839;29;20589;-84
2021/03/21 09:16:03;;;;;;;1.97;1.77;;;7.50;79.20;;;;;;4847520;29;20710;-84
2021/03/21 09:18:36;;;;;;;2.87;2.40;;;7.50;78.80;;;;;;4846883;29;20220;-84
2021/03/21 09:21:27;;;;;;;3.40;2.40;;;7.60;78.00;;;;;;4869244;29;20190;-84
2021/03/21 09:24:02;;;;;;;3.23;2.27;;;7.30;79.10;;;;;;4854136;29;20226;-84
2021/03/21 09:26:27;;;;;;;2.87;1.90;;;7.30;82.40;;;;;;4866795;29;20637;-83
2021/03/21 09:28:59;;;;;;;2.20;1.97;;;7.60;80.60;;;;;;4869216;29;20233;-84
2021/03/21 09:31:25;;;;;;;6.20;2.30;;;7.70;80.20;;;;;;4865948;29;20266;-83
2021/03/21 09:34:05;;;;;;;2.37;1.87;;;7.80;78.10;;;;;;4865152;29;20227;-84
2021/03/21 09:36:39;;;;;;;2.07;1.77;;;7.80;78.10;;;;;;4940762;29;20196;-85
2021/03/21 09:39:20;;;;;;;3.30;2.53;;;7.70;77.10;;;;;;4962067;29;20193;-85
2021/03/21 09:41:53;;;;;;;2.23;1.40;;;7.70;78.30;;;;;;4964776;28;20194;-84
2021/03/21 09:44:21;;;;;;;2.20;1.70;;;7.50;79.20;;;;;;4961181;28;20226;-85
2021/03/21 09:47:03;;;;;;;2.23;1.80;;;7.60;80.90;;;;;;4949500;29;20229;-86
2021/03/21 09:50:02;;;;;;;2.03;1.50;;;7.50;79.20;;;;;;4941393;29;20229;-85
2021/03/21 09:52:46;;;;;;;1.23;0.90;;;7.60;79.30;;;;;;4955430;28;20239;-86
2021/03/21 09:55:21;;;;;;;2.30;1.80;;;7.60;78.90;;;;;;4958296;28;20265;-87
2021/03/21 09:58:05;;;;;;;1.47;1.37;;;7.80;77.80;;;;;;4945791;28;20697;-86
2021/03/21 10:00:34;;;;;;;1.93;1.70;;;7.90;76.60;;;;;;4939682;28;20282;-85
2021/03/21 10:03:32;;;;;;;2.70;1.70;;;7.90;75.40;;;;;;4956738;28;20248;-87
2021/03/21 10:06:08;;;;;;;2.33;1.70;;;7.90;76.40;;;;;;4930407;28;20222;-86
2021/03/21 10:08:46;;;;;;;2.70;2.23;;;8.20;73.00;;;;;;4959234;28;20218;-85
2021/03/21 10:11:21;;;;;;;3.47;2.17;;;8.20;73.80;;;;;;4956261;28;20246;-86
2021/03/21 10:13:47;;;;;;;2.37;1.90;;;8.30;72.10;;;;;;4951756;28;20219;-87
2021/03/21 10:16:16;;;;;;;1.73;1.63;;;8.40;69.70;;;;;;4942494;28;20221;-86
2021/03/21 10:18:53;;;;;;;1.43;1.33;;;8.40;67.90;;;;;;4959989;28;20226;-88
2021/03/21 10:21:25;;;;;;;1.57;1.47;;;8.60;67.60;;;;;;4941906;29;20193;-85
2021/03/21 10:24:00;;;;;;;2.27;1.70;;;8.90;67.20;;;;;;4964730;28;20266;-84
2021/03/21 10:26:31;;;;;;;3.37;1.47;;;8.80;66.00;;;;;;4960420;28;20241;-87
2021/03/21 10:29:21;;;;;;;1.60;1.50;;;8.90;65.90;;;;;;4942737;29;20219;-86
2021/03/21 10:31:47;;;;;;;2.10;1.60;;;9.00;62.60;;;;;;4925334;29;20212;-83
2021/03/21 10:34:13;;;;;;;1.67;1.57;;;9.10;62.90;;;;;;4945383;29;20234;-83
2021/03/21 10:36:41;;;;;;;1.70;1.40;;;8.90;63.20;;;;;;4948319;28;20215;-83
2021/03/21 10:39:25;;;;;;;1.60;1.37;;;8.90;64.00;;;;;;4948734;29;20214;-83
2021/03/21 10:42:00;;;;;;;1.90;1.60;;;8.90;63.50;;;;;;4948172;28;20712;-83
2021/03/21 10:44:32;;;;;;;1.33;1.23;;;9.00;63.00;;;;;;4948752;28;20296;-83
2021/03/21 10:47:30;;;;;;;0.93;0.93;;;9.40;61.60;;;;;;4960364;28;20303;-82
2021/03/21 10:50:02;;;;;;;1.47;1.30;;;9.40;59.60;;;;;;4937848;29;20189;-82
2021/03/21 10:52:35;;;;;;;1.30;1.20;;;9.20;60.60;;;;;;4960500;28;20233;-82
2021/03/21 10:55:10;;;;;;;3.63;1.80;;;9.30;60.10;;;;;;4940752;28;20388;-83
2021/03/21 10:57:43;;;;;;;1.80;1.70;;;9.50;60.30;;;;;;4960297;29;20206;-81
2021/03/21 11:00:26;;;;;;;1.90;1.80;;;9.30;57.80;;;;;;4961405;29;20275;-81
2021/03/21 11:02:57;;;;;;;1.63;1.47;;;9.30;57.30;;;;;;4944115;29;20221;-83
2021/03/21 11:05:44;;;;;;;1.63;1.43;;;9.30;58.10;;;;;;4964641;29;20212;-83
2021/03/21 11:08:13;;;;;;;1.47;1.33;;;9.50;58.50;;;;;;4962817;29;20181;-85
2021/03/21 11:10:51;;;;;;;1.00;1.00;;;9.70;56.30;;;;;;4964838;28;20222;-83
2021/03/21 11:13:29;;;;;;;1.07;0.97;;;9.70;57.40;;;;;;4944085;28;20246;-83
2021/03/21 11:15:55;;;;;;;1.30;1.17;;;9.70;55.10;;;;;;4946714;29;20189;-84
2021/03/21 11:18:21;;;;;;;0.97;0.97;;;9.70;55.70;;;;;;4958904;29;20222;-83
2021/03/21 11:20:48;;;;;;;1.63;1.33;;;9.80;56.50;;;;;;4953329;29;20173;-85
2021/03/21 11:23:23;;;;;;;1.30;1.20;;;10.00;55.40;;;;;;4947814;28;20225;-85
2021/03/21 11:25:49;;;;;;;3.47;2.33;;;10.20;55.10;;;;;;4933388;29;20640;-85
2021/03/21 11:28:37;;;;;;;3.47;2.70;;;10.70;55.80;;;;;;4946001;28;20221;-84
2021/03/21 11:31:05;;;;;;;6.60;3.27;;;10.40;54.30;;;;;;4947775;28;20276;-85
2021/03/21 11:33:45;;;;;;;3.67;2.23;;;10.30;53.10;;;;;;4948374;28;20256;-85
2021/03/21 11:36:22;;;;;;;5.67;3.83;;;10.30;53.50;;;;;;4945465;29;20182;-84
2021/03/21 11:38:50;;;;;;;3.03;2.17;;;10.60;54.00;;;;;;4942366;29;20277;-84
2021/03/21 11:41:36;;;;;;;3.80;2.80;;;10.60;52.50;;;;;;4942378;29;20218;-84
2021/03/21 11:44:16;;;;;;;1.37;1.30;;;10.60;52.80;;;;;;4958837;28;20309;-83
2021/03/21 11:46:42;;;;;;;1.67;1.57;;;10.70;52.70;;;;;;4962809;28;20262;-83
2021/03/21 11:49:09;;;;;;;1.97;1.23;;;11.00;50.50;;;;;;4963200;28;20614;-83
2021/03/21 11:51:37;;;;;;;2.13;1.37;;;11.10;49.70;;;;;;4944136;28;20198;-82
2021/03/21 11:54:04;;;;;;;2.00;1.90;;;11.10;48.00;;;;;;4941447;29;20277;-82
2021/03/21 11:56:44;;;;;;;6.63;1.70;;;11.10;49.20;;;;;;4953701;28;20214;-83
2021/03/21 11:59:17;;;;;;;1.90;1.57;;;11.20;50.50;;;;;;4963887;29;20183;-82
2021/03/21 12:01:47;;;;;;;2.90;1.60;;;11.30;49.30;;;;;;4944911;29;20249;-83
2021/03/21 12:04:27;;;;;;;0.80;0.80;;;11.10;47.40;;;;;;4961655;29;20217;-82
2021/03/21 12:06:55;;;;;;;2.50;1.53;;;11.30;46.90;;;;;;4966489;28;20233;-82
2021/03/21 12:09:26;;;;;;;1.10;1.00;;;11.30;47.40;;;;;;4946510;28;20297;-86
2021/03/21 12:12:01;;;;;;;2.20;1.50;;;11.40;46.90;;;;;;4949052;29;20192;-88
2021/03/21 12:14:43;;;;;;;2.63;1.37;;;11.60;46.60;;;;;;4964703;28;20237;-83
2021/03/21 12:17:24;;;;;;;1.10;1.10;;;11.80;46.00;;;;;;4962721;28;20218;-84
2021/03/21 12:19:52;;;;;;;1.30;1.20;;;11.70;46.60;;;;;;4946060;28;20218;-83
2021/03/21 12:22:35;;;;;;;0.90;0.90;;;11.70;46.20;;;;;;4945591;29;20660;-88
2021/03/21 12:25:18;;;;;;;0.80;0.80;;;11.50;47.30;;;;;;4947068;29;20189;-86
2021/03/21 12:27:44;;;;;;;1.50;1.40;;;;;;;;;;4966662;28;20315;-86
2021/03/21 12:30:28;;;;;;;1.80;1.20;;;11.20;46.80;;;;;;4962214;28;20210;-87
2021/03/21 12:33:23;;;;;;;1.00;1.00;;;11.30;47.40;;;;;;4947870;29;20309;-87
2021/03/21 12:35:48;;;;;;;1.00;1.00;;;11.40;45.90;;;;;;4960773;28;20185;-86
2021/03/21 12:38:46;;;;;;;1.97;1.20;;;11.40;46.00;;;;;;4947856;29;20654;-86
2021/03/21 12:41:38;;;;;;;1.03;1.03;;;11.70;42.90;;;;;;4938227;28;20228;-88
2021/03/21 12:44:26;;;;;;;1.83;1.30;;;11.40;43.70;;;;;;4947227;29;20229;-88
2021/03/21 12:47:03;;;;;;;1.03;0.80;;;12.10;42.40;;;;;;4947170;28;20271;-87
2021/03/21 12:49:40;;;;;;;2.87;1.50;;;12.70;39.70;;;;;;4959405;28;20340;-87
2021/03/21 12:52:15;;;;;;;2.03;1.10;;;12.70;38.30;;;;;;4945168;28;20217;-88
2021/03/21 12:54:43;;;;;;;1.57;1.20;;;12.30;38.80;;;;;;4942039;29;20212;-86
2021/03/21 12:57:13;;;;;;;1.03;1.00;;;12.20;39.30;;;;;;4948069;28;20190;-84
2021/03/21 12:59:44;;;;;;;1.37;1.00;;;12.20;40.60;;;;;;4955398;29;20214;-85
2021/03/21 13:02:32;;;;;;;1.00;0.87;;;11.80;44.10;;;;;;4944146;29;20186;-84
2021/03/21 13:04:59;;;;;;;1.47;1.37;;;11.80;44.80;;;;;;4936758;29;20206;-86
2021/03/21 13:07:27;;;;;;;1.20;0.90;;;12.10;45.70;;;;;;4954503;29;20193;-85
2021/03/21 13:09:53;;;;;;;0.90;0.90;;;12.60;41.20;;;;;;4959053;28;20279;-85
2021/03/21 13:12:21;;;;;;;1.13;0.87;;;12.60;41.80;;;;;;4943730;28;20194;-85
2021/03/21 13:14:48;;;;;;;0.90;0.90;;;13.20;40.20;;;;;;4965083;29;20210;-86
2021/03/21 13:17:14;;;;;;;2.43;0.90;;;13.60;39.20;;;;;;4945756;29;20201;-85
2021/03/21 13:19:40;;;;;;;0.80;0.80;;;13.30;39.60;;;;;;4950185;28;20222;-86
2021/03/21 13:22:07;;;;;;;1.07;0.93;;;13.00;40.00;;;;;;4949381;28;20217;-85
2021/03/21 13:24:33;;;;;;;2.80;0.90;;;12.70;41.20;;;;;;4949391;29;20196;-86
2021/03/21 13:27:00;;;;;;;2.40;1.00;;;11.90;41.40;;;;;;4951561;29;20288;-84
2021/03/21 13:29:26;;;;;;;2.63;1.17;;;11.90;39.70;;;;;;4942665;28;20223;-87
2021/03/21 13:31:52;;;;;;;0.93;0.80;;;12.10;39.20;;;;;;4947675;29;20229;-87
2021/03/21 13:34:17;;;;;;;1.33;1.23;;;12.30;38.50;;;;;;4947657;28;20288;-83
2021/03/21 13:36:43;;;;;;;1.53;0.77;;;13.20;37.60;;;;;;4946202;29;20213;-83
2021/03/21 13:39:09;;;;;;;2.40;1.30;;;12.90;36.40;;;;;;4946712;28;20218;-83
2021/03/21 13:41:36;;;;;;;1.50;1.10;;;12.90;37.00;;;;;;4938036;29;20290;-83
2021/03/21 13:44:04;;;;;;;3.57;1.50;;;13.40;35.00;;;;;;4944741;28;20257;-84
2021/03/21 13:46:30;;;;;;;3.27;1.30;;;13.40;36.30;;;;;;4964048;29;20194;-87
2021/03/21 13:48:55;;;;;;;0.50;0.50;;;13.60;35.30;;;;;;4959762;29;20238;-84
2021/03/21 13:51:22;;;;;;;0.73;0.70;;;13.90;35.60;;;;;;4946775;28;20417;-87